createdAt,value
2023-05-09T00:02:14.039Z,31.40
2023-05-09T00:04:40.588Z,31.50
2023-05-09T00:07:07.418Z,31.54
2023-05-09T00:09:33.790Z,31.48
2023-05-09T00:12:00.133Z,31.54
2023-05-09T00:14:27.663Z,31.58
2023-05-09T00:16:54.906Z,31.58
2023-05-09T00:19:21.410Z,31.74
2023-05-09T00:21:47.803Z,31.73
2023-05-09T00:24:14.180Z,31.68
2023-05-09T00:26:42.362Z,31.64
2023-05-09T00:29:08.813Z,31.58
2023-05-09T00:31:35.231Z,31.61
2023-05-09T00:34:42.563Z,31.71
2023-05-09T00:37:08.944Z,31.51
2023-05-09T00:39:35.286Z,31.76
2023-05-09T00:42:01.734Z,31.68
2023-05-09T00:44:28.114Z,31.70
2023-05-09T00:46:54.653Z,31.65
2023-05-09T00:49:21.012Z,31.65
2023-05-09T00:51:47.872Z,31.57
2023-05-09T00:54:14.378Z,31.65
2023-05-09T00:56:41.147Z,31.54
2023-05-09T00:59:07.578Z,31.45
2023-05-09T01:01:34.009Z,31.37
2023-05-09T01:04:00.563Z,31.36
2023-05-09T01:06:29.643Z,31.49
2023-05-09T01:09:03.596Z,31.40
2023-05-09T01:11:48.864Z,31.49
2023-05-09T01:14:24.774Z,31.55
2023-05-09T01:17:00.794Z,31.37
2023-05-09T01:19:36.426Z,31.50
2023-05-09T01:22:05.907Z,31.40
2023-05-09T01:24:39.941Z,31.40
2023-05-09T01:27:25.465Z,31.24
2023-05-09T01:29:55.618Z,31.34
2023-05-09T01:32:25.964Z,31.40
2023-05-09T01:34:54.510Z,31.42
2023-05-09T01:37:23.876Z,31.54
2023-05-09T01:39:53.252Z,31.41
2023-05-09T01:42:21.015Z,31.42
2023-05-09T01:44:49.028Z,31.57
2023-05-09T01:47:16.618Z,31.56
2023-05-09T01:49:44.299Z,31.45
2023-05-09T01:52:13.005Z,31.38
2023-05-09T01:54:40.230Z,31.48
2023-05-09T01:57:07.591Z,31.49
2023-05-09T01:59:34.731Z,31.56
2023-05-09T02:02:03.347Z,31.46
2023-05-09T02:04:30.623Z,31.60
2023-05-09T02:06:57.464Z,31.57
2023-05-09T02:09:24.035Z,31.39
2023-05-09T02:11:50.405Z,31.64
2023-05-09T02:14:17.537Z,31.58
2023-05-09T02:16:44.060Z,31.60
2023-05-09T02:19:10.542Z,31.54
2023-05-09T02:21:37.091Z,31.85
2023-05-09T02:24:03.690Z,31.71
2023-05-09T02:26:30.704Z,31.73
2023-05-09T02:28:57.643Z,31.77
2023-05-09T02:31:25.854Z,31.59
2023-05-09T02:33:53.466Z,31.92
2023-05-09T02:36:20.928Z,31.84
2023-05-09T02:38:47.492Z,31.60
2023-05-09T02:41:14.393Z,31.92
2023-05-09T02:43:41.000Z,31.66
2023-05-09T02:46:07.881Z,31.81
2023-05-09T02:48:34.729Z,31.77
2023-05-09T02:51:01.294Z,31.87
2023-05-09T02:53:27.613Z,31.90
2023-05-09T02:55:54.063Z,31.99
2023-05-09T02:58:20.821Z,31.92
2023-05-09T03:00:47.146Z,32.01
2023-05-09T03:03:13.720Z,31.89
2023-05-09T03:05:40.175Z,31.96
2023-05-09T03:08:06.628Z,31.86
2023-05-09T03:10:32.981Z,31.90
2023-05-09T03:12:59.315Z,32.02
2023-05-09T03:15:25.678Z,31.95
2023-05-09T03:17:52.130Z,32.08
2023-05-09T03:20:18.867Z,31.92
2023-05-09T03:22:45.339Z,32.09
2023-05-09T03:25:11.820Z,32.06
2023-05-09T03:27:38.494Z,31.92
2023-05-09T03:30:05.144Z,32.17
2023-05-09T03:32:31.601Z,32.01
2023-05-09T03:34:58.022Z,32.03
2023-05-09T03:37:26.251Z,32.32
2023-05-09T03:39:53.461Z,32.15
2023-05-09T03:42:19.928Z,32.43
2023-05-09T03:44:46.581Z,32.67
2023-05-09T03:47:12.958Z,32.53
2023-05-09T03:49:39.403Z,32.73
2023-05-09T03:52:05.796Z,32.46
2023-05-09T03:54:32.242Z,32.73
2023-05-09T03:56:58.678Z,32.43
2023-05-09T03:59:25.075Z,32.50
2023-05-09T04:01:51.516Z,32.52
2023-05-09T04:04:18.092Z,32.65
2023-05-09T04:06:44.538Z,32.28
2023-05-09T04:09:11.018Z,32.36
2023-05-09T04:11:37.460Z,32.53
2023-05-09T04:14:07.118Z,32.57
2023-05-09T04:16:33.778Z,32.43
2023-05-09T04:19:00.268Z,32.57
2023-05-09T04:21:26.716Z,32.60
2023-05-09T04:23:53.475Z,32.74
2023-05-09T04:26:22.569Z,32.63
2023-05-09T04:28:49.061Z,32.69
2023-05-09T04:31:15.698Z,32.49
2023-05-09T04:33:42.197Z,32.62
2023-05-09T04:36:09.172Z,32.69
2023-05-09T04:38:35.509Z,32.64
2023-05-09T04:41:01.845Z,32.75
2023-05-09T04:43:28.379Z,32.61
2023-05-09T04:45:54.794Z,32.61
2023-05-09T04:48:21.128Z,32.71
2023-05-09T04:50:48.555Z,32.57
2023-05-09T04:53:15.234Z,32.43
2023-05-09T04:55:41.873Z,32.53
2023-05-09T04:58:09.102Z,32.37
2023-05-09T05:00:35.756Z,32.36
2023-05-09T05:03:02.214Z,32.43
2023-05-09T05:05:28.665Z,32.48
2023-05-09T05:07:55.480Z,32.43
2023-05-09T05:10:21.808Z,32.28
2023-05-09T05:12:48.183Z,32.20
2023-05-09T05:15:14.869Z,32.07
2023-05-09T05:17:41.511Z,32.25
2023-05-09T05:20:10.433Z,32.05
2023-05-09T05:22:36.917Z,32.10
2023-05-09T05:25:04.506Z,31.91
2023-05-09T05:27:31.291Z,32.07
2023-05-09T05:29:57.752Z,32.40
2023-05-09T05:32:24.201Z,32.05
2023-05-09T05:34:50.551Z,32.12
2023-05-09T05:37:16.949Z,31.81
2023-05-09T05:39:43.291Z,32.02
2023-05-09T05:42:09.774Z,31.85
2023-05-09T05:44:36.185Z,31.86
2023-05-09T05:47:02.552Z,31.99
2023-05-09T05:49:28.878Z,32.07
2023-05-09T05:51:55.192Z,31.74
2023-05-09T05:54:21.499Z,31.82
2023-05-09T05:56:47.915Z,31.96
2023-05-09T05:59:14.347Z,31.81
2023-05-09T06:01:40.857Z,31.90
2023-05-09T06:04:07.492Z,31.72
2023-05-09T06:06:34.246Z,31.89
2023-05-09T06:09:00.644Z,32.09
2023-05-09T06:11:27.007Z,32.00
2023-05-09T06:13:53.423Z,32.04
2023-05-09T06:16:21.339Z,31.87
2023-05-09T06:18:48.030Z,32.05
2023-05-09T06:21:14.403Z,31.84
2023-05-09T06:23:47.578Z,32.01
2023-05-09T06:26:27.331Z,31.94
2023-05-09T06:28:53.659Z,32.05
2023-05-09T06:31:20.143Z,32.09
2023-05-09T06:33:46.603Z,31.97
2023-05-09T06:36:12.992Z,31.89
2023-05-09T06:38:39.398Z,31.66
2023-05-09T06:41:05.920Z,31.66
2023-05-09T06:43:32.388Z,31.62
2023-05-09T06:45:59.106Z,31.57
2023-05-09T06:48:25.673Z,31.51
2023-05-09T06:50:51.999Z,31.45
2023-05-09T06:53:18.414Z,31.30
2023-05-09T06:55:44.983Z,31.38
2023-05-09T06:58:12.081Z,31.50
2023-05-09T07:00:38.609Z,31.29
2023-05-09T07:03:07.409Z,31.29
2023-05-09T07:05:34.172Z,31.14
2023-05-09T07:08:00.711Z,31.14
2023-05-09T07:10:27.295Z,31.04
2023-05-09T07:12:53.800Z,30.70
2023-05-09T07:15:32.516Z,30.84
2023-05-09T07:18:06.527Z,30.64
2023-05-09T07:20:32.985Z,30.54
2023-05-09T07:22:59.536Z,30.67
2023-05-09T07:25:26.062Z,31.08
2023-05-09T07:27:52.798Z,31.73
2023-05-09T07:30:19.241Z,31.98
2023-05-09T07:32:45.813Z,31.85
2023-05-09T07:35:12.577Z,31.98
2023-05-09T07:37:39.182Z,31.25
2023-05-09T07:40:06.170Z,30.41
2023-05-09T07:42:33.216Z,29.88
2023-05-09T07:45:00.297Z,29.36
2023-05-09T07:47:26.684Z,29.17
2023-05-09T07:49:53.087Z,28.78
2023-05-09T07:52:19.469Z,28.34
2023-05-09T07:54:45.878Z,28.19
2023-05-09T07:57:12.262Z,28.15
2023-05-09T07:59:38.727Z,27.91
2023-05-09T08:02:05.222Z,27.66
2023-05-09T08:04:31.721Z,27.79
2023-05-09T08:06:59.461Z,27.72
2023-05-09T08:09:26.601Z,27.58
2023-05-09T08:11:53.069Z,27.50
2023-05-09T08:14:19.526Z,27.18
2023-05-09T08:16:45.859Z,27.29
2023-05-09T08:19:12.203Z,27.27
2023-05-09T08:21:38.674Z,27.26
2023-05-09T08:24:07.901Z,27.25
2023-05-09T08:26:34.957Z,27.34
2023-05-09T08:29:01.603Z,27.68
2023-05-09T08:31:28.081Z,27.70
2023-05-09T08:33:54.484Z,27.54
2023-05-09T08:36:20.932Z,27.64
2023-05-09T08:38:47.288Z,27.77
2023-05-09T08:41:13.717Z,27.86
2023-05-09T08:43:40.461Z,27.90
2023-05-09T08:46:08.386Z,27.41
2023-05-09T08:48:37.811Z,27.56
2023-05-09T08:51:07.454Z,27.77
2023-05-09T08:53:34.534Z,27.73
2023-05-09T08:56:03.755Z,27.22
2023-05-09T08:58:31.187Z,27.41
2023-05-09T09:00:58.469Z,27.42
2023-05-09T09:03:27.688Z,27.16
2023-05-09T09:05:55.055Z,27.16
2023-05-09T09:08:23.153Z,26.88
2023-05-09T09:10:49.671Z,27.27
2023-05-09T09:13:17.511Z,27.28
2023-05-09T09:15:45.364Z,27.25
2023-05-09T09:18:12.869Z,27.37
2023-05-09T09:20:46.590Z,27.14
2023-05-09T09:23:17.877Z,27.05
2023-05-09T09:25:45.725Z,26.96
2023-05-09T09:28:12.647Z,27.00
2023-05-09T09:30:47.673Z,27.00
2023-05-09T09:33:21.414Z,27.05
2023-05-09T09:35:48.659Z,27.12
2023-05-09T09:38:15.044Z,27.30
2023-05-09T09:40:48.053Z,27.02
2023-05-09T09:43:14.433Z,27.06
2023-05-09T09:45:42.003Z,27.09
2023-05-09T09:48:08.525Z,27.13
2023-05-09T09:50:35.016Z,27.14
2023-05-09T09:53:01.338Z,27.22
2023-05-09T09:55:29.074Z,27.16
2023-05-09T09:57:55.519Z,27.24
2023-05-09T10:00:26.382Z,27.62
2023-05-09T10:02:52.857Z,27.63
2023-05-09T10:05:23.467Z,27.52
2023-05-09T10:07:50.596Z,27.75
2023-05-09T10:10:17.273Z,27.60
2023-05-09T10:12:44.513Z,27.77
2023-05-09T10:15:12.332Z,27.74
2023-05-09T10:17:38.968Z,27.67
2023-05-09T10:20:06.017Z,27.77
2023-05-09T10:22:33.297Z,27.53
2023-05-09T10:25:04.975Z,27.30
2023-05-09T10:27:35.075Z,27.34
2023-05-09T10:30:01.391Z,27.29
2023-05-09T10:32:30.867Z,27.41
2023-05-09T10:35:02.027Z,27.29
2023-05-09T10:37:28.606Z,27.33
2023-05-09T10:39:55.646Z,27.34
2023-05-09T10:42:23.797Z,27.28
2023-05-09T10:44:51.085Z,27.25
2023-05-09T10:47:17.871Z,27.11
2023-05-09T10:49:44.743Z,27.32
2023-05-09T10:52:11.796Z,27.40
2023-05-09T10:54:38.285Z,27.20
2023-05-09T10:57:06.377Z,27.41
2023-05-09T10:59:43.077Z,27.57
2023-05-09T11:02:19.126Z,27.31
2023-05-09T11:04:45.638Z,27.14
2023-05-09T11:07:27.498Z,27.22
2023-05-09T11:10:07.585Z,27.17
2023-05-09T11:12:34.013Z,26.83
2023-05-09T11:15:07.627Z,27.01
2023-05-09T11:17:37.757Z,27.09
2023-05-09T11:20:05.815Z,27.08
2023-05-09T11:22:39.584Z,26.61
2023-05-09T11:25:07.715Z,26.89
2023-05-09T11:27:42.550Z,26.78
2023-05-09T11:30:10.302Z,26.76
2023-05-09T11:32:55.750Z,26.85
2023-05-09T11:35:23.291Z,26.86
2023-05-09T11:37:51.263Z,26.96
2023-05-09T11:40:20.955Z,26.95
2023-05-09T11:42:50.049Z,27.05
2023-05-09T11:45:17.223Z,26.66
2023-05-09T11:47:45.092Z,26.67
2023-05-09T11:50:12.672Z,26.87
2023-05-09T11:52:39.755Z,26.34
2023-05-09T11:55:07.216Z,26.53
2023-05-09T11:57:33.659Z,26.44
2023-05-09T12:00:01.271Z,26.46
2023-05-09T12:02:28.580Z,26.34
2023-05-09T12:04:55.046Z,26.62
2023-05-09T12:07:21.538Z,26.67
2023-05-09T12:09:49.394Z,26.59
2023-05-09T12:12:20.712Z,26.53
2023-05-09T12:14:48.436Z,26.62
2023-05-09T12:17:14.787Z,26.49
2023-05-09T12:19:41.117Z,26.76
2023-05-09T12:22:07.669Z,26.74
2023-05-09T12:24:35.496Z,26.68
2023-05-09T12:27:02.212Z,26.49
2023-05-09T12:29:30.677Z,26.55
2023-05-09T12:31:57.932Z,26.57
2023-05-09T12:34:24.554Z,26.53
2023-05-09T12:36:51.697Z,26.91
2023-05-09T12:39:19.414Z,26.72
2023-05-09T12:41:57.462Z,26.44
2023-05-09T12:44:29.534Z,26.46
2023-05-09T12:46:56.381Z,26.41
2023-05-09T12:49:23.642Z,26.42
2023-05-09T12:51:50.684Z,26.24
2023-05-09T12:54:24.071Z,26.30
2023-05-09T12:56:53.875Z,26.38
2023-05-09T12:59:21.070Z,26.53
2023-05-09T13:01:51.533Z,26.38
2023-05-09T13:04:19.883Z,26.73
2023-05-09T13:06:50.879Z,26.54
2023-05-09T13:09:18.153Z,26.64
2023-05-09T13:11:45.222Z,26.75
2023-05-09T13:14:11.803Z,26.63
2023-05-09T13:16:38.274Z,26.59
2023-05-09T13:19:05.408Z,26.50
2023-05-09T13:21:32.271Z,26.39
2023-05-09T13:23:58.655Z,26.54
2023-05-09T13:26:25.961Z,26.86
2023-05-09T13:28:52.402Z,26.63
2023-05-09T13:31:19.027Z,26.61
2023-05-09T13:33:45.429Z,26.33
2023-05-09T13:36:11.859Z,26.51
2023-05-09T13:38:40.593Z,26.70
2023-05-09T13:41:07.348Z,26.46
2023-05-09T13:43:34.118Z,26.43
2023-05-09T13:46:00.498Z,26.64
2023-05-09T13:48:26.953Z,26.70
2023-05-09T13:50:53.536Z,26.52
2023-05-09T13:53:19.933Z,26.39
2023-05-09T13:55:46.410Z,26.53
2023-05-09T13:58:12.834Z,26.68
2023-05-09T14:00:39.249Z,26.50
2023-05-09T14:03:05.852Z,26.75
2023-05-09T14:05:32.464Z,26.74
2023-05-09T14:07:58.872Z,26.64
2023-05-09T14:10:27.163Z,26.76
2023-05-09T14:12:54.090Z,26.85
2023-05-09T14:15:20.571Z,26.84
2023-05-09T14:17:47.056Z,26.76
2023-05-09T14:20:15.787Z,26.98
2023-05-09T14:22:42.687Z,26.86
2023-05-09T14:25:09.107Z,26.47
2023-05-09T14:27:38.639Z,26.53
2023-05-09T14:30:05.229Z,26.47
2023-05-09T14:32:31.722Z,26.85
2023-05-09T14:34:58.103Z,26.72
2023-05-09T14:37:24.540Z,27.09
2023-05-09T14:39:51.038Z,27.20
2023-05-09T14:42:17.602Z,27.01
2023-05-09T14:44:45.342Z,27.03
2023-05-09T14:47:12.168Z,27.31
2023-05-09T14:49:41.872Z,27.21
2023-05-09T14:52:11.068Z,27.03
2023-05-09T14:54:37.491Z,27.16
2023-05-09T14:57:05.310Z,26.59
2023-05-09T14:59:32.117Z,26.23
2023-05-09T15:01:58.819Z,26.32
2023-05-09T15:04:28.437Z,26.19
2023-05-09T15:06:54.932Z,26.12
2023-05-09T15:09:21.514Z,25.96
2023-05-09T15:11:49.140Z,25.92
2023-05-09T15:14:16.784Z,25.90
2023-05-09T15:16:43.640Z,25.57
2023-05-09T15:19:10.270Z,25.69
2023-05-09T15:21:36.697Z,25.63
2023-05-09T15:24:03.620Z,25.52
2023-05-09T15:26:30.282Z,25.69
2023-05-09T15:28:56.620Z,25.81
2023-05-09T15:31:24.061Z,25.75
2023-05-09T15:33:50.604Z,25.61
2023-05-09T15:36:16.993Z,25.84
2023-05-09T15:38:44.329Z,25.49
2023-05-09T15:41:10.761Z,25.59
2023-05-09T15:43:37.161Z,25.43
2023-05-09T15:46:03.768Z,25.71
2023-05-09T15:48:30.641Z,25.61
2023-05-09T15:50:57.026Z,25.63
2023-05-09T15:53:23.367Z,25.50
2023-05-09T15:55:50.038Z,25.55
2023-05-09T15:58:16.496Z,25.61
2023-05-09T16:00:42.959Z,25.50
2023-05-09T16:03:09.450Z,25.66
2023-05-09T16:05:35.908Z,25.51
2023-05-09T16:08:02.399Z,25.54
2023-05-09T16:10:28.845Z,25.75
2023-05-09T16:12:55.241Z,25.76
2023-05-09T16:15:21.680Z,25.75
2023-05-09T16:17:48.086Z,25.58
2023-05-09T16:20:15.090Z,25.52
2023-05-09T16:22:41.981Z,25.55
2023-05-09T16:25:08.483Z,25.65
2023-05-09T16:27:34.987Z,25.73
2023-05-09T16:30:01.482Z,25.62
2023-05-09T16:32:27.846Z,25.56
2023-05-09T16:34:54.340Z,25.57
2023-05-09T16:37:20.809Z,25.58
2023-05-09T16:39:47.287Z,25.64
2023-05-09T16:42:13.644Z,25.63
2023-05-09T16:44:40.090Z,25.80
2023-05-09T16:47:06.912Z,25.60
2023-05-09T16:49:33.375Z,25.78
2023-05-09T16:51:59.900Z,25.56
2023-05-09T16:54:26.280Z,25.61
2023-05-09T16:56:52.617Z,25.62
2023-05-09T16:59:20.072Z,25.59
2023-05-09T17:01:47.615Z,25.62
2023-05-09T17:04:14.646Z,25.67
2023-05-09T17:06:41.080Z,25.85
2023-05-09T17:09:07.680Z,25.73
2023-05-09T17:11:34.082Z,25.65
2023-05-09T17:14:01.750Z,25.93
2023-05-09T17:16:28.153Z,25.74
2023-05-09T17:18:54.588Z,25.94
2023-05-09T17:21:21.566Z,25.92
2023-05-09T17:23:47.891Z,25.92
2023-05-09T17:26:14.333Z,25.96
2023-05-09T17:28:40.733Z,26.15
2023-05-09T17:31:07.441Z,26.06
2023-05-09T17:33:34.044Z,26.06
2023-05-09T17:36:00.504Z,26.19
2023-05-09T17:38:26.948Z,26.08
2023-05-09T17:40:53.619Z,26.29
2023-05-09T17:43:21.710Z,26.43
2023-05-09T17:45:48.110Z,26.37
2023-05-09T17:48:14.663Z,26.46
2023-05-09T17:50:41.051Z,26.55
2023-05-09T17:53:09.370Z,26.39
2023-05-09T17:55:36.020Z,26.39
2023-05-09T17:58:02.428Z,26.66
2023-05-09T18:00:29.290Z,26.83
2023-05-09T18:02:57.243Z,26.69
2023-05-09T18:05:26.083Z,26.65
2023-05-09T18:07:53.452Z,26.63
2023-05-09T18:10:20.285Z,26.68
2023-05-09T18:12:47.406Z,26.70
2023-05-09T18:15:13.994Z,26.70
2023-05-09T18:17:40.457Z,26.73
2023-05-09T18:20:07.512Z,27.01
2023-05-09T18:22:33.867Z,27.00
2023-05-09T18:25:00.293Z,27.00
2023-05-09T18:27:27.218Z,26.91
2023-05-09T18:29:53.591Z,26.93
2023-05-09T18:32:20.716Z,27.17
2023-05-09T18:34:48.431Z,27.10
2023-05-09T18:37:14.972Z,27.28
2023-05-09T18:39:41.398Z,27.24
2023-05-09T18:42:07.864Z,27.26
2023-05-09T18:44:34.809Z,27.28
2023-05-09T18:47:01.275Z,27.16
2023-05-09T18:49:27.803Z,27.19
2023-05-09T18:51:54.912Z,27.39
2023-05-09T18:54:21.401Z,27.33
2023-05-09T18:56:47.726Z,27.28
2023-05-09T18:59:16.390Z,27.53
2023-05-09T19:01:44.004Z,27.64
2023-05-09T19:04:10.480Z,27.47
2023-05-09T19:06:36.955Z,27.55
2023-05-09T19:09:04.663Z,27.49
2023-05-09T19:11:31.214Z,27.60
2023-05-09T19:13:57.755Z,27.58
2023-05-09T19:16:26.387Z,27.50
2023-05-09T19:18:56.382Z,27.69
2023-05-09T19:21:22.862Z,27.65
2023-05-09T19:23:49.472Z,28.14
2023-05-09T19:26:16.369Z,29.71
2023-05-09T19:28:43.241Z,32.94
2023-05-09T19:31:09.809Z,35.30
2023-05-09T19:33:36.195Z,36.98
2023-05-09T19:36:02.666Z,37.30
2023-05-09T19:38:29.729Z,37.89
2023-05-09T19:40:56.442Z,38.30
2023-05-09T19:43:22.941Z,38.24
2023-05-09T19:45:49.338Z,38.70
2023-05-09T19:48:15.742Z,38.98
2023-05-09T19:50:42.694Z,39.07
2023-05-09T19:53:09.080Z,39.23
2023-05-09T19:55:35.549Z,39.35
2023-05-09T19:58:01.917Z,39.35
2023-05-09T20:00:28.416Z,39.40
2023-05-09T20:02:55.213Z,39.71
2023-05-09T20:05:21.709Z,39.89
2023-05-09T20:07:48.168Z,39.68
2023-05-09T20:10:15.584Z,39.71
2023-05-09T20:12:42.161Z,40.14
2023-05-09T20:15:08.718Z,40.25
2023-05-09T20:17:35.188Z,40.37
2023-05-09T20:20:01.659Z,40.20
2023-05-09T20:22:28.023Z,40.33
2023-05-09T20:24:54.333Z,40.56
2023-05-09T20:27:22.007Z,40.98
2023-05-09T20:29:48.350Z,40.44
2023-05-09T20:32:14.832Z,40.85
2023-05-09T20:34:41.186Z,40.62
2023-05-09T20:37:07.872Z,40.41
2023-05-09T20:39:34.265Z,40.66
2023-05-09T20:42:02.445Z,40.73
2023-05-09T20:44:29.149Z,41.18
2023-05-09T20:46:55.576Z,40.77
2023-05-09T20:49:22.779Z,41.14
2023-05-09T20:51:49.296Z,41.31
2023-05-09T20:54:16.878Z,41.52
2023-05-09T20:56:43.296Z,41.60
2023-05-09T20:59:09.656Z,41.82
2023-05-09T21:01:36.704Z,41.09
2023-05-09T21:04:05.518Z,41.27
2023-05-09T21:06:33.188Z,41.02
2023-05-09T21:08:59.654Z,41.52
2023-05-09T21:11:26.016Z,41.86
2023-05-09T21:13:52.368Z,41.51
2023-05-09T21:16:18.942Z,41.16
2023-05-09T21:18:45.349Z,41.87
2023-05-09T21:21:11.877Z,41.52
2023-05-09T21:23:38.336Z,41.68
2023-05-09T21:26:04.745Z,41.75
2023-05-09T21:28:31.445Z,41.71
2023-05-09T21:30:59.955Z,41.93
2023-05-09T21:33:26.424Z,41.22
2023-05-09T21:35:52.748Z,40.88
2023-05-09T21:38:19.072Z,41.08
2023-05-09T21:40:45.577Z,40.84
2023-05-09T21:43:11.980Z,40.94
2023-05-09T21:45:38.393Z,41.54
2023-05-09T21:48:04.998Z,41.52
2023-05-09T21:50:31.486Z,41.28
2023-05-09T21:52:57.895Z,40.89
2023-05-09T21:55:24.297Z,41.64
2023-05-09T21:57:50.739Z,40.81
2023-05-09T22:00:17.469Z,41.22
2023-05-09T22:02:44.259Z,41.20
2023-05-09T22:05:11.170Z,41.06
2023-05-09T22:07:37.955Z,40.42
2023-05-09T22:10:05.299Z,40.77
2023-05-09T22:12:31.734Z,40.57
2023-05-09T22:14:58.083Z,40.79
2023-05-09T22:17:24.607Z,40.65
2023-05-09T22:19:51.243Z,40.82
2023-05-09T22:22:17.624Z,40.99
2023-05-09T22:24:43.975Z,41.50
2023-05-09T22:27:10.964Z,41.16
2023-05-09T22:29:37.401Z,40.82
2023-05-09T22:32:04.034Z,41.04
2023-05-09T22:34:31.066Z,41.59
2023-05-09T22:36:57.465Z,41.36
2023-05-09T22:39:24.135Z,40.73
2023-05-09T22:41:50.635Z,40.67
2023-05-09T22:44:17.017Z,41.35
2023-05-09T22:46:43.375Z,41.34
2023-05-09T22:49:09.795Z,40.26
2023-05-09T22:51:36.452Z,40.45
2023-05-09T22:54:02.841Z,40.41
2023-05-09T22:56:29.295Z,40.78
2023-05-09T22:58:55.731Z,40.81
2023-05-09T23:01:22.158Z,40.85
2023-05-09T23:03:48.534Z,41.57
2023-05-09T23:06:14.912Z,40.86
2023-05-09T23:08:41.441Z,41.36
2023-05-09T23:11:07.800Z,40.77
2023-05-09T23:13:34.204Z,40.19
2023-05-09T23:16:00.658Z,40.22
2023-05-09T23:18:28.038Z,40.13
2023-05-09T23:20:54.380Z,40.15
2023-05-09T23:23:20.730Z,40.74
2023-05-09T23:25:47.080Z,40.85
2023-05-09T23:28:13.479Z,40.95
2023-05-09T23:30:39.875Z,41.27
2023-05-09T23:33:06.304Z,41.70
2023-05-09T23:35:33.058Z,41.35
2023-05-09T23:37:59.455Z,41.21
2023-05-09T23:40:25.840Z,40.74
2023-05-09T23:42:52.233Z,40.71
2023-05-09T23:45:18.696Z,41.10
2023-05-09T23:47:45.221Z,41.08
2023-05-09T23:50:12.333Z,40.35
2023-05-09T23:52:38.780Z,40.03
2023-05-09T23:55:05.435Z,40.52
2023-05-09T23:57:31.858Z,40.97
2023-05-09T23:59:58.200Z,41.07
